Erie, PA (16509)

9:25 PM EDT en Abril 25, 2018 (GMT -0400)
Summit Township (North) | | Change Station

Alt 1093 ft 42.07 °N, 80.05 °W | Updated 1 second ago

Nublado
Nublado
40.5 ° F
Sensación térmica 32 ° F
N
16.1
Viento Variable Viento desde ONO
Gusts 17.4 mph

Hoy
Alta -- | Baja -- ° F
--% Posibilidad de precipitaciones
Ayer
Alta -- | Baja -- ° F
Precip. -- pul
Presión 29.91 pul
Visibilidad 10.0 Millas
Nubes Baja 1000 ft
Nublado 1800 ft
Vientos helados 32 ° F
Punto de rocío 32 ° F
Humedad 72%
Precipitaciones 0.22 pul
Espesor de la nieve No disponible.
6:24 AM 8:12 PM
Gibosa creciente, 83% visible
METAR KERI 260051Z 26011KT 10SM FEW010 OVC018 05/03 A2990 RMK AO2 SLP129 T00500028
Presión 29.91 pul
Visibilidad 10.0 Millas
Nubes Baja 1000 ft
Nublado 1800 ft
Vientos helados 32 ° F
Punto de rocío 32 ° F
Humedad 72%
Precipitaciones 0.22 pul
Espesor de la nieve No disponible.
6:24 AM 8:12 PM
Gibosa creciente, 83% visible
METAR KERI 260051Z 26011KT 10SM FEW010 OVC018 05/03 A2990 RMK AO2 SLP129 T00500028

Get Severe Weather Alerts

Thanks for signing up!

Be on the lookout for a verification email in your inbox.

You'll start receiving the daily forecast at 6 AM.

×

10-Day Weather Forecast

Almanac

Astronomía

Apr. 25, 2018 Salida Puesta
Hora real
Crepúsculo civil
Crepúsculo náutico
Crepúsculo astronómico
Luna
Horas de luz
Horas de luz
Tomorrow will be .
, % of the Moon is Illuminated

Extremos de hoy

Máximos del estado Bajos del estado

Community

WunderPhotos

Category 6

Welcome to Category 6. This is the collective home for Weather Underground's featured writeups by Dr. Jeff Masters (right), Bob Henson (left), Chris Burt, and other regular contributors.

Nearby

Calidad del aire

  Calidad del aire Índice AQ Contaminante
Not available.

Grosos de nieve

Estación Profundido Altura

Actividad de terremotos

Ciudad Distance Mag. Tiempo y dato
Magnitud mínima muestra es 2,5.

Temperaturas de aguas costeras

Lugar Temperatura

Stations

Estaciones meteorológicas cercanas

Ubicación de la estación Temp. Vientos helados Punto de rocío Humedad Viento Precip. Alt Actualizado Tipo
                   

Watches & Warnings

There are currently no watches in effect.